Time,TemperatureF,DewpointF,PressureIn,WindDirection,WindDirectionDegrees,WindSpeedMPH,WindSpeedGustMPH,Humidity,HourlyPrecipIn,Conditions,Clouds,dailyrainin,SoftwareType,DateUTC
2013-09-20 00:00:00,52.3,40.9,29.93,SE,137,0.0,0.0,65,0.00,,,0.00,Wunderground v.1.15,2013-09-20 06:00:00,
2013-09-20 00:05:00,52.0,40.6,29.93,SE,137,0.0,0.0,65,0.00,,,0.00,Wunderground v.1.15,2013-09-20 06:05:00,
2013-09-20 00:10:00,51.7,40.3,29.93,SE,137,0.0,0.0,65,0.00,,,0.00,Wunderground v.1.15,2013-09-20 06:10:00,
2013-09-20 00:20:00,51.3,40.3,29.94,SE,137,0.0,0.0,66,0.00,,,0.00,Wunderground v.1.15,2013-09-20 06:20:00,
2013-09-20 00:25:00,51.0,40.0,29.94,SE,137,0.0,0.0,66,0.00,,,0.00,Wunderground v.1.15,2013-09-20 06:25:00,
2013-09-20 00:30:00,50.7,40.1,29.94,SE,137,0.0,0.0,67,0.00,,,0.00,Wunderground v.1.15,2013-09-20 06:30:00,
2013-09-20 00:35:00,50.5,39.9,29.94,SE,137,0.0,0.0,67,0.00,,,0.00,Wunderground v.1.15,2013-09-20 06:35:00,
2013-09-20 00:40:00,50.4,40.2,29.94,SE,137,0.0,0.0,68,0.00,,,0.00,Wunderground v.1.15,2013-09-20 06:40:00,
2013-09-20 00:50:00,49.9,40.5,29.94,SE,137,0.0,0.0,70,0.00,,,0.00,Wunderground v.1.15,2013-09-20 06:50:00,
2013-09-20 00:55:00,49.8,40.4,29.94,SE,137,0.0,0.0,70,0.00,,,0.00,Wunderground v.1.15,2013-09-20 06:55:00,
2013-09-20 01:00:00,49.8,41.1,29.94,SE,137,0.0,0.0,72,0.00,,,0.00,Wunderground v.1.15,2013-09-20 07:00:00,
2013-09-20 01:05:00,49.6,40.9,29.94,SE,137,0.0,0.0,72,0.00,,,0.00,Wunderground v.1.15,2013-09-20 07:05:00,
2013-09-20 01:10:00,49.5,40.8,29.94,SE,137,0.0,0.0,72,0.00,,,0.00,Wunderground v.1.15,2013-09-20 07:10:00,
2013-09-20 01:20:00,49.4,40.7,29.95,SE,137,0.0,0.0,72,0.00,,,0.00,Wunderground v.1.15,2013-09-20 07:20:00,
2013-09-20 01:25:00,49.4,41.1,29.95,SE,137,0.0,0.0,73,0.00,,,0.00,Wunderground v.1.15,2013-09-20 07:25:00,
2013-09-20 01:30:00,49.6,42.0,29.95,SE,137,0.0,0.0,75,0.00,,,0.00,Wunderground v.1.15,2013-09-20 07:30:00,
2013-09-20 01:35:00,49.6,42.0,29.94,SE,137,0.0,0.0,75,0.00,,,0.00,Wunderground v.1.15,2013-09-20 07:35:00,
2013-09-20 01:40:00,49.8,42.2,29.94,SE,137,0.0,0.0,75,0.00,,,0.00,Wunderground v.1.15,2013-09-20 07:40:00,
2013-09-20 01:50:00,50.1,42.8,29.94,SE,137,0.0,0.0,76,0.00,,,0.00,Wunderground v.1.15,2013-09-20 07:50:00,
2013-09-20 01:55:00,50.1,42.8,29.94,SE,137,0.0,0.0,76,0.00,,,0.00,Wunderground v.1.15,2013-09-20 07:55:00,
2013-09-20 02:00:00,50.4,43.5,29.94,SE,137,0.0,0.0,77,0.00,,,0.00,Wunderground v.1.15,2013-09-20 08:00:00,
2013-09-20 02:10:00,50.5,43.6,29.94,SE,137,0.0,0.0,77,0.00,,,0.00,Wunderground v.1.15,2013-09-20 08:10:00,
2013-09-20 02:15:00,50.7,43.8,29.94,SE,137,0.0,0.0,77,0.00,,,0.00,Wunderground v.1.15,2013-09-20 08:15:00,
2013-09-20 02:20:00,50.8,43.8,29.93,SE,137,0.0,0.0,77,0.00,,,0.00,Wunderground v.1.15,2013-09-20 08:20:00,
2013-09-20 02:25:00,51.0,44.0,29.93,SE,137,0.0,0.0,77,0.00,,,0.00,Wunderground v.1.15,2013-09-20 08:25:00,
2013-09-20 02:30:00,51.1,44.1,29.93,SE,137,0.0,0.0,77,0.00,,,0.00,Wunderground v.1.15,2013-09-20 08:30:00,
2013-09-20 02:40:00,51.4,44.4,29.92,SE,137,0.0,0.0,77,0.00,,,0.00,Wunderground v.1.15,2013-09-20 08:40:00,
2013-09-20 02:45:00,51.6,44.6,29.92,SE,137,0.0,0.0,77,0.00,,,0.00,Wunderground v.1.15,2013-09-20 08:45:00,
2013-09-20 02:50:00,51.6,44.6,29.91,SE,137,0.0,0.0,77,0.00,,,0.00,Wunderground v.1.15,2013-09-20 08:50:00,
2013-09-20 02:55:00,51.7,44.7,29.91,SE,137,0.0,0.0,77,0.00,,,0.00,Wunderground v.1.15,2013-09-20 08:55:00,
2013-09-20 03:00:00,51.9,44.9,29.91,SE,137,0.0,0.0,77,0.00,,,0.00,Wunderground v.1.15,2013-09-20 09:00:00,
2013-09-20 03:10:00,52.2,45.2,29.91,SE,137,0.0,0.0,77,0.00,,,0.00,Wunderground v.1.15,2013-09-20 09:10:00,
2013-09-20 03:15:00,52.5,45.5,29.91,SE,137,0.0,0.0,77,0.00,,,0.00,Wunderground v.1.15,2013-09-20 09:15:00,
2013-09-20 03:20:00,52.6,45.6,29.90,SE,137,0.0,0.0,77,0.00,,,0.00,Wunderground v.1.15,2013-09-20 09:20:00,
2013-09-20 03:25:00,52.8,45.4,29.90,SE,137,0.0,0.0,76,0.00,,,0.00,Wunderground v.1.15,2013-09-20 09:25:00,
2013-09-20 03:30:00,52.8,45.4,29.90,SE,137,0.0,0.0,76,0.00,,,0.00,Wunderground v.1.15,2013-09-20 09:30:00,
2013-09-20 03:40:00,52.9,45.5,29.90,SE,137,0.0,0.0,76,0.00,,,0.00,Wunderground v.1.15,2013-09-20 09:40:00,
2013-09-20 03:45:00,52.9,45.5,29.90,SE,137,0.0,0.0,76,0.00,,,0.00,Wunderground v.1.15,2013-09-20 09:45:00,
2013-09-20 03:50:00,52.9,45.5,29.89,SE,137,0.0,0.0,76,0.00,,,0.00,Wunderground v.1.15,2013-09-20 09:50:00,
2013-09-20 04:00:00,52.8,45.4,29.89,SE,137,0.0,0.0,76,0.00,,,0.00,Wunderground v.1.15,2013-09-20 10:00:00,
2013-09-20 04:05:00,52.6,45.2,29.89,SE,137,0.0,0.0,76,0.00,,,0.00,Wunderground v.1.15,2013-09-20 10:05:00,
2013-09-20 04:10:00,52.5,45.2,29.89,SE,137,0.0,0.0,76,0.00,,,0.00,Wunderground v.1.15,2013-09-20 10:10:00,
2013-09-20 04:15:00,52.3,45.0,29.89,SE,137,0.0,0.0,76,0.00,,,0.00,Wunderground v.1.15,2013-09-20 10:15:00,
2013-09-20 04:25:00,52.2,44.9,29.90,SE,137,0.0,0.0,76,0.00,,,0.00,Wunderground v.1.15,2013-09-20 10:25:00,
2013-09-20 04:30:00,52.0,44.7,29.90,SE,137,0.0,0.0,76,0.00,,,0.00,Wunderground v.1.15,2013-09-20 10:30:00,
2013-09-20 04:35:00,51.9,44.9,29.89,SE,137,0.0,0.0,77,0.00,,,0.00,Wunderground v.1.15,2013-09-20 10:35:00,
2013-09-20 04:40:00,51.9,44.9,29.89,SE,137,0.0,0.0,77,0.00,,,0.00,Wunderground v.1.15,2013-09-20 10:40:00,
2013-09-20 04:45:00,51.9,44.9,29.89,SE,137,0.0,0.0,77,0.00,,,0.00,Wunderground v.1.15,2013-09-20 10:45:00,
2013-09-20 04:55:00,51.7,44.7,29.89,SE,137,0.0,0.0,77,0.00,,,0.00,Wunderground v.1.15,2013-09-20 10:55:00,
2013-09-20 05:00:00,51.9,45.3,29.89,SE,137,0.0,0.0,78,0.00,,,0.00,Wunderground v.1.15,2013-09-20 11:00:00,
2013-09-20 05:05:00,51.9,45.3,29.89,SE,137,0.0,0.0,78,0.00,,,0.00,Wunderground v.1.15,2013-09-20 11:05:00,
2013-09-20 05:10:00,51.9,45.3,29.89,SE,137,0.0,0.0,78,0.00,,,0.00,Wunderground v.1.15,2013-09-20 11:10:00,
2013-09-20 05:15:00,51.7,45.1,29.89,SE,137,0.0,0.0,78,0.00,,,0.00,Wunderground v.1.15,2013-09-20 11:15:00,
2013-09-20 05:25:00,51.6,45.0,29.89,SE,137,0.0,0.0,78,0.00,,,0.00,Wunderground v.1.15,2013-09-20 11:25:00,
2013-09-20 05:30:00,51.3,44.7,29.89,SE,137,0.0,0.0,78,0.00,,,0.00,Wunderground v.1.15,2013-09-20 11:30:00,
2013-09-20 05:35:00,51.1,44.5,29.91,SE,137,0.0,0.0,78,0.00,,,0.00,Wunderground v.1.15,2013-09-20 11:35:00,
2013-09-20 05:45:00,50.7,44.1,29.91,SE,137,0.0,0.0,78,0.00,,,0.00,Wunderground v.1.15,2013-09-20 11:45:00,
2013-09-20 05:50:00,50.4,43.8,29.90,SE,137,0.0,0.0,78,0.00,,,0.00,Wunderground v.1.15,2013-09-20 11:50:00,
2013-09-20 05:55:00,50.2,43.6,29.90,SE,137,0.0,0.0,78,0.00,,,0.00,Wunderground v.1.15,2013-09-20 11:55:00,
2013-09-20 06:00:00,50.1,43.5,29.90,SE,137,0.0,0.0,78,0.00,,,0.00,Wunderground v.1.15,2013-09-20 12:00:00,
2013-09-20 06:05:00,49.8,43.2,29.90,SE,137,0.0,0.0,78,0.00,,,0.00,Wunderground v.1.15,2013-09-20 12:05:00,
2013-09-20 06:15:00,49.5,42.9,29.90,SE,137,0.0,0.0,78,0.00,,,0.00,Wunderground v.1.15,2013-09-20 12:15:00,
2013-09-20 06:20:00,49.4,42.8,29.92,SE,137,0.0,0.0,78,0.00,,,0.00,Wunderground v.1.15,2013-09-20 12:20:00,
2013-09-20 06:25:00,49.1,42.9,29.92,SE,137,0.0,0.0,79,0.00,,,0.00,Wunderground v.1.15,2013-09-20 12:25:00,
2013-09-20 06:30:00,49.1,42.9,29.92,SE,137,0.0,0.0,79,0.00,,,0.00,Wunderground v.1.15,2013-09-20 12:30:00,
2013-09-20 06:40:00,48.9,42.7,29.93,SE,137,0.0,0.0,79,0.00,,,0.00,Wunderground v.1.15,2013-09-20 12:40:00,
2013-09-20 06:45:00,48.8,42.9,29.93,SE,137,0.0,0.0,80,0.00,,,0.00,Wunderground v.1.15,2013-09-20 12:45:00,
2013-09-20 06:50:00,48.6,42.7,29.93,SE,137,0.0,0.0,80,0.00,,,0.00,Wunderground v.1.15,2013-09-20 12:50:00,
2013-09-20 06:55:00,48.5,42.6,29.93,SE,137,0.0,0.0,80,0.00,,,0.00,Wunderground v.1.15,2013-09-20 12:55:00,
2013-09-20 07:05:00,48.2,42.3,29.94,SE,137,0.0,0.0,80,0.00,,,0.00,Wunderground v.1.15,2013-09-20 13:05:00,
2013-09-20 07:10:00,48.0,42.1,29.94,SE,137,0.0,0.0,80,0.00,,,0.00,Wunderground v.1.15,2013-09-20 13:10:00,
2013-09-20 07:20:00,47.6,41.4,29.94,SE,137,0.0,0.0,79,0.00,,,0.00,Wunderground v.1.15,2013-09-20 13:20:00,
2013-09-20 07:25:00,47.4,41.2,29.94,SE,137,0.0,0.0,79,0.00,,,0.00,Wunderground v.1.15,2013-09-20 13:25:00,
2013-09-20 07:30:00,47.3,41.4,29.94,SE,137,0.0,0.0,80,0.00,,,0.00,Wunderground v.1.15,2013-09-20 13:30:00,
2013-09-20 07:35:00,47.3,41.4,29.97,SE,137,0.0,0.0,80,0.00,,,0.00,Wunderground v.1.15,2013-09-20 13:35:00,
2013-09-20 07:40:00,47.1,41.2,29.97,SE,137,0.0,0.0,80,0.00,,,0.00,Wunderground v.1.15,2013-09-20 13:40:00,
2013-09-20 07:50:00,47.6,42.1,29.98,SE,137,0.0,0.0,81,0.00,,,0.00,Wunderground v.1.15,2013-09-20 13:50:00,
2013-09-20 07:55:00,48.0,42.4,29.98,SE,137,0.0,0.0,81,0.00,,,0.00,Wunderground v.1.15,2013-09-20 13:55:00,
2013-09-20 08:00:00,48.5,42.9,29.98,SE,137,0.0,0.0,81,0.00,,,0.00,Wunderground v.1.15,2013-09-20 14:00:00,
2013-09-20 08:05:00,49.1,43.2,29.96,SE,137,0.0,0.0,80,0.00,,,0.00,Wunderground v.1.15,2013-09-20 14:05:00,
2013-09-20 08:10:00,49.5,43.6,29.96,SE,137,0.0,0.0,80,0.00,,,0.00,Wunderground v.1.15,2013-09-20 14:10:00,
2013-09-20 08:20:00,50.5,43.6,29.94,SE,137,0.0,0.0,77,0.00,,,0.00,Wunderground v.1.15,2013-09-20 14:20:00,
2013-09-20 08:25:00,51.0,43.7,29.94,SE,137,0.0,0.0,76,0.00,,,0.00,Wunderground v.1.15,2013-09-20 14:25:00,
2013-09-20 08:30:00,51.6,43.9,29.94,SE,137,0.0,0.0,75,0.00,,,0.00,Wunderground v.1.15,2013-09-20 14:30:00,
2013-09-20 08:40:00,52.3,43.9,29.95,SE,137,0.0,0.0,73,0.00,,,0.00,Wunderground v.1.15,2013-09-20 14:40:00,
2013-09-20 08:45:00,52.6,43.5,29.95,SE,137,0.0,0.0,71,0.00,,,0.00,Wunderground v.1.15,2013-09-20 14:45:00,
2013-09-20 08:50:00,52.9,43.7,29.93,SE,137,0.0,0.0,71,0.00,,,0.00,Wunderground v.1.15,2013-09-20 14:50:00,
2013-09-20 08:55:00,53.3,43.8,29.93,SE,137,0.0,0.0,70,0.00,,,0.00,Wunderground v.1.15,2013-09-20 14:55:00,
2013-09-20 09:00:00,53.8,43.9,29.93,SE,137,0.0,0.0,69,0.00,,,0.00,Wunderground v.1.15,2013-09-20 15:00:00,
2013-09-20 09:10:00,54.5,44.2,29.93,SE,137,0.0,0.0,68,0.00,,,0.00,Wunderground v.1.15,2013-09-20 15:10:00,
2013-09-20 09:15:00,54.8,44.0,29.93,SE,137,0.0,0.0,67,0.00,,,0.00,Wunderground v.1.15,2013-09-20 15:15:00,
2013-09-20 09:20:00,55.3,44.5,29.92,SE,137,0.0,0.0,67,0.00,,,0.00,Wunderground v.1.15,2013-09-20 15:20:00,
2013-09-20 09:25:00,55.6,44.0,29.92,SE,137,0.0,0.0,65,0.00,,,0.00,Wunderground v.1.15,2013-09-20 15:25:00,
2013-09-20 09:30:00,55.9,44.3,29.92,SE,137,0.0,0.0,65,0.00,,,0.00,Wunderground v.1.15,2013-09-20 15:30:00,
2013-09-20 09:40:00,56.6,43.7,29.92,SE,137,0.0,0.0,62,0.00,,,0.00,Wunderground v.1.15,2013-09-20 15:40:00,
2013-09-20 09:45:00,57.0,44.1,29.92,SE,137,0.0,0.0,62,0.00,,,0.00,Wunderground v.1.15,2013-09-20 15:45:00,
2013-09-20 09:50:00,57.5,44.6,29.92,SE,137,0.0,0.0,62,0.00,,,0.00,Wunderground v.1.15,2013-09-20 15:50:00,
2013-09-20 09:55:00,58.1,44.7,29.92,SE,137,0.0,0.0,61,0.00,,,0.00,Wunderground v.1.15,2013-09-20 15:55:00,
2013-09-20 10:00:00,58.9,44.6,29.92,SE,137,0.0,0.0,59,0.00,,,0.00,Wunderground v.1.15,2013-09-20 16:00:00,
2013-09-20 10:10:00,59.8,45.4,29.91,SE,137,0.0,0.0,59,0.00,,,0.00,Wunderground v.1.15,2013-09-20 16:10:00,
2013-09-20 10:15:00,60.1,45.3,29.91,SE,137,0.0,2.0,58,0.00,,,0.00,Wunderground v.1.15,2013-09-20 16:15:00,
2013-09-20 10:20:00,60.1,44.3,29.89,SE,137,0.0,0.0,56,0.00,,,0.00,Wunderground v.1.15,2013-09-20 16:20:00,
2013-09-20 10:30:00,60.1,45.3,29.89,SE,137,0.0,0.0,58,0.00,,,0.00,Wunderground v.1.15,2013-09-20 16:30:00,
2013-09-20 10:35:00,60.4,44.2,29.90,SE,137,0.0,0.0,55,0.00,,,0.00,Wunderground v.1.15,2013-09-20 16:35:00,
2013-09-20 10:40:00,60.4,45.1,29.90,SE,137,0.0,0.0,57,0.00,,,0.00,Wunderground v.1.15,2013-09-20 16:40:00,
2013-09-20 10:45:00,60.7,45.4,29.90,SE,137,0.0,0.0,57,0.00,,,0.00,Wunderground v.1.15,2013-09-20 16:45:00,
2013-09-20 10:50:00,61.2,44.9,29.90,SE,137,0.0,0.0,55,0.00,,,0.00,Wunderground v.1.15,2013-09-20 16:50:00,
2013-09-20 11:00:00,61.5,44.2,29.90,SSE,148,0.0,0.0,53,0.00,,,0.00,Wunderground v.1.15,2013-09-20 17:00:00,
2013-09-20 11:05:00,62.0,45.6,29.88,SSE,148,0.0,0.0,55,0.00,,,0.00,Wunderground v.1.15,2013-09-20 17:05:00,
2013-09-20 11:10:00,62.4,45.0,29.88,SSE,148,0.0,0.0,53,0.00,,,0.00,Wunderground v.1.15,2013-09-20 17:10:00,
2013-09-20 11:15:00,62.7,45.3,29.88,SSE,148,0.0,0.0,53,0.00,,,0.00,Wunderground v.1.15,2013-09-20 17:15:00,
2013-09-20 11:25:00,64.0,47.0,29.88,SSE,148,0.0,0.0,54,0.00,,,0.00,Wunderground v.1.15,2013-09-20 17:25:00,
2013-09-20 11:30:00,64.5,46.5,29.88,SSE,148,0.0,0.0,52,0.00,,,0.00,Wunderground v.1.15,2013-09-20 17:30:00,
2013-09-20 11:35:00,65.0,46.4,29.87,SSE,148,0.0,0.0,51,0.00,,,0.00,Wunderground v.1.15,2013-09-20 17:35:00,
2013-09-20 11:40:00,64.8,45.7,29.87,SSE,164,0.0,0.0,50,0.00,,,0.00,Wunderground v.1.15,2013-09-20 17:40:00,
2013-09-20 11:45:00,65.2,46.6,29.87,SSE,164,0.0,0.0,51,0.00,,,0.00,Wunderground v.1.15,2013-09-20 17:45:00,
2013-09-20 11:55:00,65.0,45.4,29.87,SSE,165,0.0,0.0,49,0.00,,,0.00,Wunderground v.1.15,2013-09-20 17:55:00,
2013-09-20 12:00:00,65.6,45.9,29.87,NE,48,0.0,0.0,49,0.00,,,0.00,Wunderground v.1.15,2013-09-20 18:00:00,
2013-09-20 12:05:00,66.1,45.3,29.86,ENE,71,0.0,0.0,47,0.00,,,0.00,Wunderground v.1.15,2013-09-20 18:05:00,
2013-09-20 12:15:00,66.8,45.9,29.86,ENE,71,0.0,0.0,47,0.00,,,0.00,Wunderground v.1.15,2013-09-20 18:15:00,
2013-09-20 12:20:00,66.4,45.0,29.86,East,85,0.0,1.0,46,0.00,,,0.00,Wunderground v.1.15,2013-09-20 18:20:00,
2013-09-20 12:25:00,66.4,45.0,29.86,SSE,150,0.0,1.0,46,0.00,,,0.00,Wunderground v.1.15,2013-09-20 18:25:00,
2013-09-20 12:30:00,66.4,44.4,29.86,SSE,151,0.0,0.0,45,0.00,,,0.00,Wunderground v.1.15,2013-09-20 18:30:00,
2013-09-20 12:35:00,66.8,45.3,29.86,SSE,151,0.0,0.0,46,0.00,,,0.00,Wunderground v.1.15,2013-09-20 18:35:00,
2013-09-20 12:45:00,66.9,44.9,29.86,SSE,151,0.0,2.0,45,0.00,,,0.00,Wunderground v.1.15,2013-09-20 18:45:00,
2013-09-20 12:50:00,67.1,43.8,29.85,SSE,151,0.0,0.0,43,0.00,,,0.00,Wunderground v.1.15,2013-09-20 18:50:00,
2013-09-20 12:55:00,67.4,44.1,29.85,SSE,151,0.0,0.0,43,0.00,,,0.00,Wunderground v.1.15,2013-09-20 18:55:00,
2013-09-20 13:00:00,68.1,44.7,29.85,SSE,151,0.0,0.0,43,0.00,,,0.00,Wunderground v.1.15,2013-09-20 19:00:00,
2013-09-20 13:05:00,68.6,44.6,29.84,SSE,151,0.0,0.0,42,0.00,,,0.00,Wunderground v.1.15,2013-09-20 19:05:00,
2013-09-20 13:15:00,68.9,44.9,29.84,SSE,151,0.0,1.0,42,0.00,,,0.00,Wunderground v.1.15,2013-09-20 19:15:00,
2013-09-20 13:20:00,69.4,43.4,29.83,SSE,151,0.0,1.0,39,0.00,,,0.00,Wunderground v.1.15,2013-09-20 19:20:00,
2013-09-20 13:25:00,69.1,43.1,29.83,SSE,151,0.0,1.0,39,0.00,,,0.00,Wunderground v.1.15,2013-09-20 19:25:00,
2013-09-20 13:35:00,69.1,44.4,29.81,SSE,151,0.0,1.0,41,0.00,,,0.00,Wunderground v.1.15,2013-09-20 19:35:00,
2013-09-20 13:40:00,69.3,40.5,29.81,NE,34,0.0,1.0,35,0.00,,,0.00,Wunderground v.1.15,2013-09-20 19:40:00,
2013-09-20 13:45:00,69.4,40.5,29.81,NE,34,0.0,1.0,35,0.00,,,0.00,Wunderground v.1.15,2013-09-20 19:45:00,
2013-09-20 13:50:00,69.6,42.2,29.80,NE,34,0.0,0.0,37,0.00,,,0.00,Wunderground v.1.15,2013-09-20 19:50:00,
2013-09-20 13:55:00,69.6,41.5,29.80,NE,34,0.0,0.0,36,0.00,,,0.00,Wunderground v.1.15,2013-09-20 19:55:00,
2013-09-20 14:05:00,69.8,40.9,29.79,NNE,16,0.0,1.0,35,0.00,,,0.00,Wunderground v.1.15,2013-09-20 20:05:00,
2013-09-20 14:10:00,69.8,39.4,29.79,NNE,16,0.0,0.0,33,0.00,,,0.00,Wunderground v.1.15,2013-09-20 20:10:00,
2013-09-20 14:15:00,69.8,37.8,29.79,NNE,16,0.0,0.0,31,0.00,,,0.00,Wunderground v.1.15,2013-09-20 20:15:00,
2013-09-20 14:20:00,69.9,40.2,29.78,NNE,16,0.0,0.0,34,0.00,,,0.00,Wunderground v.1.15,2013-09-20 20:20:00,
2013-09-20 14:30:00,69.9,36.2,29.78,NNE,16,0.0,0.0,29,0.00,,,0.00,Wunderground v.1.15,2013-09-20 20:30:00,
2013-09-20 14:35:00,69.9,37.0,29.77,North,354,0.0,0.0,30,0.00,,,0.00,Wunderground v.1.15,2013-09-20 20:35:00,
2013-09-20 14:40:00,69.9,36.2,29.77,North,359,0.0,1.0,29,0.00,,,0.00,Wunderground v.1.15,2013-09-20 20:40:00,
2013-09-20 14:45:00,70.1,36.3,29.77,North,359,0.0,1.0,29,0.00,,,0.00,Wunderground v.1.15,2013-09-20 20:45:00,
2013-09-20 14:50:00,70.3,38.2,29.77,North,359,0.0,0.0,31,0.00,,,0.00,Wunderground v.1.15,2013-09-20 20:50:00,
2013-09-20 15:00:00,70.3,39.8,29.77,North,359,0.0,0.0,33,0.00,,,0.00,Wunderground v.1.15,2013-09-20 21:00:00,
2013-09-20 15:05:00,70.4,39.9,29.76,North,352,0.0,0.0,33,0.00,,,0.00,Wunderground v.1.15,2013-09-20 21:05:00,
2013-09-20 15:10:00,70.4,39.1,29.76,NNW,343,0.0,0.0,32,0.00,,,0.00,Wunderground v.1.15,2013-09-20 21:10:00,
2013-09-20 15:20:00,70.4,40.7,29.75,NNW,343,0.0,0.0,34,0.00,,,0.00,Wunderground v.1.15,2013-09-20 21:20:00,
2013-09-20 15:25:00,70.6,40.1,29.75,NNW,343,0.0,0.0,33,0.00,,,0.00,Wunderground v.1.15,2013-09-20 21:25:00,
2013-09-20 15:30:00,70.4,39.1,29.75,NNW,343,0.0,1.0,32,0.00,,,0.00,Wunderground v.1.15,2013-09-20 21:30:00,
2013-09-20 15:35:00,70.8,39.5,29.76,NNW,343,0.0,1.0,32,0.00,,,0.00,Wunderground v.1.15,2013-09-20 21:35:00,
2013-09-20 15:45:00,70.9,40.3,29.76,WSW,256,0.0,1.0,33,0.00,,,0.00,Wunderground v.1.15,2013-09-20 21:45:00,
2013-09-20 15:50:00,71.3,41.5,29.75,South,185,0.0,0.0,34,0.00,,,0.00,Wunderground v.1.15,2013-09-20 21:50:00,
2013-09-20 15:55:00,71.5,40.1,29.75,South,185,0.0,0.0,32,0.00,,,0.00,Wunderground v.1.15,2013-09-20 21:55:00,
2013-09-20 16:00:00,71.6,41.0,29.75,South,185,0.0,0.0,33,0.00,,,0.00,Wunderground v.1.15,2013-09-20 22:00:00,
2013-09-20 16:10:00,71.6,40.2,29.74,South,185,0.0,0.0,32,0.00,,,0.00,Wunderground v.1.15,2013-09-20 22:10:00,
2013-09-20 16:15:00,71.8,40.3,29.74,South,185,0.0,0.0,32,0.00,,,0.00,Wunderground v.1.15,2013-09-20 22:15:00,
2013-09-20 16:20:00,71.8,40.3,29.73,South,185,0.0,0.0,32,0.00,,,0.00,Wunderground v.1.15,2013-09-20 22:20:00,
2013-09-20 16:25:00,72.0,41.3,29.73,South,185,0.0,1.0,33,0.00,,,0.00,Wunderground v.1.15,2013-09-20 22:25:00,
2013-09-20 16:35:00,72.0,39.7,29.73,South,185,0.0,0.0,31,0.00,,,0.00,Wunderground v.1.15,2013-09-20 22:35:00,
2013-09-20 16:40:00,72.0,38.9,29.73,South,185,0.0,0.0,30,0.00,,,0.00,Wunderground v.1.15,2013-09-20 22:40:00,
2013-09-20 16:45:00,72.0,40.5,29.73,South,185,0.0,0.0,32,0.00,,,0.00,Wunderground v.1.15,2013-09-20 22:45:00,
2013-09-20 16:50:00,72.1,38.1,29.73,South,185,0.0,0.0,29,0.00,,,0.00,Wunderground v.1.15,2013-09-20 22:50:00,
2013-09-20 17:00:00,72.3,40.0,29.73,South,185,0.0,0.0,31,0.00,,,0.00,Wunderground v.1.15,2013-09-20 23:00:00,
2013-09-20 17:05:00,72.3,40.0,29.73,South,185,0.0,0.0,31,0.00,,,0.00,Wunderground v.1.15,2013-09-20 23:05:00,
2013-09-20 17:10:00,72.3,39.1,29.73,South,185,0.0,0.0,30,0.00,,,0.00,Wunderground v.1.15,2013-09-20 23:10:00,
2013-09-20 17:15:00,72.3,40.0,29.73,South,185,0.0,0.0,31,0.00,,,0.00,Wunderground v.1.15,2013-09-20 23:15:00,
2013-09-20 17:20:00,72.5,39.3,29.72,South,185,0.0,0.0,30,0.00,,,0.00,Wunderground v.1.15,2013-09-20 23:20:00,
2013-09-20 17:30:00,72.7,40.3,29.72,South,185,0.0,0.0,31,0.00,,,0.00,Wunderground v.1.15,2013-09-20 23:30:00,
2013-09-20 17:35:00,72.7,38.6,29.74,South,185,0.0,0.0,29,0.00,,,0.00,Wunderground v.1.15,2013-09-20 23:35:00,
2013-09-20 17:40:00,72.8,40.4,29.74,South,185,0.0,0.0,31,0.00,,,0.00,Wunderground v.1.15,2013-09-20 23:40:00,
2013-09-20 17:45:00,73.3,40.8,29.74,South,185,0.0,0.0,31,0.00,,,0.00,Wunderground v.1.15,2013-09-20 23:45:00,
2013-09-20 17:50:00,73.9,39.6,29.74,South,185,0.0,0.0,29,0.00,,,0.00,Wunderground v.1.15,2013-09-20 23:50:00,
2013-09-20 18:00:00,74.4,39.2,29.74,South,185,0.0,0.0,28,0.00,,,0.00,Wunderground v.1.15,2013-09-21 00:00:00,
2013-09-20 18:05:00,74.2,40.8,29.74,South,185,0.0,0.0,30,0.00,,,0.00,Wunderground v.1.15,2013-09-21 00:05:00,
2013-09-20 18:10:00,74.0,40.6,29.74,South,185,0.0,0.0,30,0.00,,,0.00,Wunderground v.1.15,2013-09-21 00:10:00,
2013-09-20 18:20:00,73.3,40.8,29.73,South,185,0.0,0.0,31,0.00,,,0.00,Wunderground v.1.15,2013-09-21 00:20:00,
2013-09-20 18:25:00,72.8,40.4,29.73,South,185,0.0,0.0,31,0.00,,,0.00,Wunderground v.1.15,2013-09-21 00:25:00,
2013-09-20 18:30:00,72.3,40.8,29.73,South,185,0.0,0.0,32,0.00,,,0.00,Wunderground v.1.15,2013-09-21 00:30:00,
2013-09-20 18:35:00,71.8,40.3,29.75,South,185,0.0,0.0,32,0.00,,,0.00,Wunderground v.1.15,2013-09-21 00:35:00,
2013-09-20 18:40:00,71.3,40.7,29.75,South,185,0.0,0.0,33,0.00,,,0.00,Wunderground v.1.15,2013-09-21 00:40:00,
2013-09-20 18:50:00,70.3,40.6,29.75,South,185,0.0,0.0,34,0.00,,,0.00,Wunderground v.1.15,2013-09-21 00:50:00,
2013-09-20 18:55:00,69.8,40.9,29.75,South,185,0.0,0.0,35,0.00,,,0.00,Wunderground v.1.15,2013-09-21 00:55:00,
2013-09-20 19:00:00,69.3,41.9,29.75,South,185,0.0,0.0,37,0.00,,,0.00,Wunderground v.1.15,2013-09-21 01:00:00,
2013-09-20 19:05:00,68.8,41.5,29.77,South,185,0.0,0.0,37,0.00,,,0.00,Wunderground v.1.15,2013-09-21 01:05:00,
2013-09-20 19:15:00,67.9,42.0,29.77,South,185,0.0,0.0,39,0.00,,,0.00,Wunderground v.1.15,2013-09-21 01:15:00,
2013-09-20 19:20:00,67.4,42.2,29.77,South,185,0.0,0.0,40,0.00,,,0.00,Wunderground v.1.15,2013-09-21 01:20:00,
2013-09-20 19:25:00,66.9,42.4,29.77,South,185,0.0,0.0,41,0.00,,,0.00,Wunderground v.1.15,2013-09-21 01:25:00,
2013-09-20 19:35:00,66.1,42.3,29.77,South,185,0.0,0.0,42,0.00,,,0.00,Wunderground v.1.15,2013-09-21 01:35:00,
2013-09-20 19:40:00,65.8,42.7,29.77,South,185,0.0,0.0,43,0.00,,,0.00,Wunderground v.1.15,2013-09-21 01:40:00,
2013-09-20 19:45:00,65.3,42.2,29.77,South,185,0.0,0.0,43,0.00,,,0.00,Wunderground v.1.15,2013-09-21 01:45:00,
2013-09-20 19:55:00,64.7,41.7,29.77,South,185,0.0,0.0,43,0.00,,,0.00,Wunderground v.1.15,2013-09-21 01:55:00,
2013-09-20 20:00:00,64.5,42.1,29.77,South,185,0.0,0.0,44,0.00,,,0.00,Wunderground v.1.15,2013-09-21 02:00:00,
2013-09-20 20:05:00,64.2,41.8,29.79,South,185,0.0,0.0,44,0.00,,,0.00,Wunderground v.1.15,2013-09-21 02:05:00,
2013-09-20 20:10:00,63.9,42.7,29.79,South,185,0.0,0.0,46,0.00,,,0.00,Wunderground v.1.15,2013-09-21 02:10:00,
2013-09-20 20:15:00,63.4,43.4,29.79,South,185,0.0,0.0,48,0.00,,,0.00,Wunderground v.1.15,2013-09-21 02:15:00,
2013-09-20 20:25:00,62.7,43.8,29.80,South,185,0.0,0.0,50,0.00,,,0.00,Wunderground v.1.15,2013-09-21 02:25:00,
2013-09-20 20:30:00,62.3,43.4,29.80,South,185,0.0,0.0,50,0.00,,,0.00,Wunderground v.1.15,2013-09-21 02:30:00,
2013-09-20 20:35:00,62.0,44.2,29.78,South,185,0.0,0.0,52,0.00,,,0.00,Wunderground v.1.15,2013-09-21 02:35:00,
2013-09-20 20:45:00,61.2,43.4,29.78,South,185,0.0,0.0,52,0.00,,,0.00,Wunderground v.1.15,2013-09-21 02:45:00,
2013-09-20 20:50:00,60.7,43.9,29.79,South,185,0.0,0.0,54,0.00,,,0.00,Wunderground v.1.15,2013-09-21 02:50:00,
2013-09-20 20:55:00,60.2,43.5,29.79,South,185,0.0,0.0,54,0.00,,,0.00,Wunderground v.1.15,2013-09-21 02:55:00,
2013-09-20 21:00:00,59.8,43.6,29.79,South,185,0.0,0.0,55,0.00,,,0.00,Wunderground v.1.15,2013-09-21 03:00:00,
2013-09-20 21:05:00,59.5,43.3,29.81,South,185,0.0,0.0,55,0.00,,,0.00,Wunderground v.1.15,2013-09-21 03:05:00,
2013-09-20 21:15:00,58.6,43.4,29.81,South,185,0.0,0.0,57,0.00,,,0.00,Wunderground v.1.15,2013-09-21 03:15:00,
2013-09-20 21:20:00,58.3,43.1,29.82,South,185,0.0,0.0,57,0.00,,,0.00,Wunderground v.1.15,2013-09-21 03:20:00,
2013-09-20 21:25:00,57.8,43.1,29.82,South,185,0.0,0.0,58,0.00,,,0.00,Wunderground v.1.15,2013-09-21 03:25:00,
2013-09-20 21:30:00,57.5,43.3,29.82,South,185,0.0,0.0,59,0.00,,,0.00,Wunderground v.1.15,2013-09-21 03:30:00,
2013-09-20 21:40:00,56.9,43.2,29.80,South,185,0.0,0.0,60,0.00,,,0.00,Wunderground v.1.15,2013-09-21 03:40:00,
2013-09-20 21:45:00,56.5,42.8,29.80,South,185,0.0,0.0,60,0.00,,,0.00,Wunderground v.1.15,2013-09-21 03:45:00,
2013-09-20 21:50:00,56.3,43.0,29.80,South,185,0.0,0.0,61,0.00,,,0.00,Wunderground v.1.15,2013-09-21 03:50:00,
2013-09-20 21:55:00,56.0,42.7,29.80,South,185,0.0,0.0,61,0.00,,,0.00,Wunderground v.1.15,2013-09-21 03:55:00,
2013-09-20 22:05:00,55.6,42.8,29.80,South,185,0.0,0.0,62,0.00,,,0.00,Wunderground v.1.15,2013-09-21 04:05:00,
2013-09-20 22:10:00,55.3,42.9,29.80,South,185,0.0,0.0,63,0.00,,,0.00,Wunderground v.1.15,2013-09-21 04:10:00,
2013-09-20 22:15:00,55.1,42.7,29.80,South,185,0.0,0.0,63,0.00,,,0.00,Wunderground v.1.15,2013-09-21 04:15:00,
2013-09-20 22:20:00,54.8,42.9,29.81,South,185,0.0,0.0,64,0.00,,,0.00,Wunderground v.1.15,2013-09-21 04:20:00,
2013-09-20 22:25:00,54.7,42.8,29.81,South,185,0.0,0.0,64,0.00,,,0.00,Wunderground v.1.15,2013-09-21 04:25:00,
2013-09-20 22:30:00,54.4,42.9,29.81,South,185,0.0,0.0,65,0.00,,,0.00,Wunderground v.1.15,2013-09-21 04:30:00,
2013-09-20 22:35:00,54.2,42.7,29.80,South,185,0.0,0.0,65,0.00,,,0.00,Wunderground v.1.15,2013-09-21 04:35:00,
2013-09-20 22:40:00,53.9,42.8,29.80,South,185,0.0,0.0,66,0.00,,,0.00,Wunderground v.1.15,2013-09-21 04:40:00,
2013-09-20 22:45:00,53.8,42.7,29.80,South,185,0.0,0.0,66,0.00,,,0.00,Wunderground v.1.15,2013-09-21 04:45:00,
2013-09-20 22:55:00,53.5,42.8,29.80,South,185,0.0,0.0,67,0.00,,,0.00,Wunderground v.1.15,2013-09-21 04:55:00,
2013-09-20 23:00:00,53.3,42.6,29.80,South,185,0.0,0.0,67,0.00,,,0.00,Wunderground v.1.15,2013-09-21 05:00:00,
2013-09-20 23:05:00,53.1,42.8,29.80,South,185,0.0,0.0,68,0.00,,,0.00,Wunderground v.1.15,2013-09-21 05:05:00,
2013-09-20 23:10:00,52.9,42.6,29.80,South,185,0.0,0.0,68,0.00,,,0.00,Wunderground v.1.15,2013-09-21 05:10:00,
2013-09-20 23:20:00,52.6,42.7,29.79,South,185,0.0,0.0,69,0.00,,,0.00,Wunderground v.1.15,2013-09-21 05:20:00,
2013-09-20 23:25:00,52.5,42.6,29.79,South,185,0.0,0.0,69,0.00,,,0.00,Wunderground v.1.15,2013-09-21 05:25:00,
2013-09-20 23:30:00,52.3,42.8,29.79,South,185,0.0,0.0,70,0.00,,,0.00,Wunderground v.1.15,2013-09-21 05:30:00,
2013-09-20 23:40:00,52.0,42.5,29.78,South,185,0.0,0.0,70,0.00,,,0.00,Wunderground v.1.15,2013-09-21 05:40:00,
2013-09-20 23:45:00,51.9,42.4,29.78,South,185,0.0,0.0,70,0.00,,,0.00,Wunderground v.1.15,2013-09-21 05:45:00,
2013-09-20 23:50:00,51.7,42.6,29.78,South,185,0.0,0.0,71,0.00,,,0.00,Wunderground v.1.15,2013-09-21 05:50:00,
2013-09-20 23:55:00,51.7,42.6,29.78,South,185,0.0,0.0,71,0.00,,,0.00,Wunderground v.1.15,2013-09-21 05:55:00,